Main page
METAR-TAF:

METAR-TAF

Airports :

Netaji Subhas Chandra Bose International Airport

Kolkata, India

latitude: 22-39N, longitude: 088-27E, elevation: 4 m

Current weather observation

The report was made 22 minutes ago, at 17:30 UTC
Wind 3 kt from the South/Southwest
Temperature 25°C
Humidity 74%
Pressure 1012 hPa
Visibility: 2600 m
haze

METAR: VECC 151730Z 21003KT 2600 HZ NSC 25/20 Q1012 NOSIG

Time: 23:22 (17:52 UTC)

Forecast

The report was made 3 hours and 52 minutes ago, at 14:00 UTC
Forecast valid from 15 at 15 UTC to 15 at 24 UTC
Wind 5 kt from the South/Southwest
Visibility: 3000 m
haze
Becoming
from 15 at 18 UTC to 15 at 20 UTC
Wind kt from the North
Visibility: 2400 m
mist
Becoming
from 15 at 22 UTC to 15 at 24 UTC
Visibility: 1400 m
mist

TAF: VECC 151400Z 1515/1524 20005KT 3000 HZ NSC BECMG 1518/1520 00000KT 2400 BR BECMG 1522/1524 1400 BR

Weather observations and forecasts of more than 4000 airports (METAR and TAF reports).

The available stations are represented by yellow and red dots on the map.

Hover mouse over dot to see the name of the station.

Then click to see weather observations and forecasts.

To change the map : click on the green buttons with a black cross to zoom in, on the green button with a dash to zoom out, or on the green arrows for adjacent maps.


METAR-TAF: